Time;durP1;ratioP1;P1;durP2;ratioP2;P2;SDS_P1;SDS_P2;PMS_P1;PMS_P2;Temp;Humidity;BMP_temperature;BMP_pressure;BME280_temperature;BME280_humidity;BME280_pressure;Samples;Min_cycle;Max_cycle;Signal;HPM_P1;HPM_P2
2021/04/16 00:00:25;;;;;;;2.30;2.03;;;10.20;91.60;;;;;;5046488;28;20210;-70
2021/04/16 00:02:51;;;;;;;2.97;1.50;;;10.20;91.70;;;;;;5038729;28;20252;-70
2021/04/16 00:05:19;;;;;;;2.25;2.05;;;10.20;91.70;;;;;;5039242;28;20214;-70
2021/04/16 00:07:45;;;;;;;2.65;1.70;;;10.20;91.80;;;;;;5037699;28;20207;-70
2021/04/16 00:10:15;;;;;;;2.30;1.40;;;10.20;91.80;;;;;;5045236;28;20758;-70
2021/04/16 00:12:41;;;;;;;2.10;1.70;;;10.20;91.90;;;;;;5043725;28;20207;-70
2021/04/16 00:15:09;;;;;;;2.60;1.80;;;10.20;92.00;;;;;;5033758;28;20266;-70
2021/04/16 00:17:36;;;;;;;3.10;2.33;;;10.10;92.00;;;;;;5033445;28;20206;-69
2021/04/16 00:20:03;;;;;;;2.17;1.67;;;10.10;92.10;;;;;;5049774;28;20198;-69
2021/04/16 00:22:30;;;;;;;1.90;1.70;;;10.10;92.10;;;;;;5044751;28;20203;-70
2021/04/16 00:24:56;;;;;;;1.35;1.20;;;10.10;92.10;;;;;;5032998;28;20199;-70
2021/04/16 00:27:22;;;;;;;1.70;1.40;;;10.10;92.20;;;;;;5034720;28;20223;-70
2021/04/16 00:29:48;;;;;;;1.23;1.05;;;10.10;92.30;;;;;;5037494;28;20253;-70
2021/04/16 00:32:14;;;;;;;1.95;1.52;;;10.10;92.40;;;;;;5040769;28;20543;-70
2021/04/16 00:34:41;;;;;;;2.22;1.88;;;10.10;92.40;;;;;;5033593;28;20203;-70
2021/04/16 00:37:08;;;;;;;2.35;1.90;;;10.10;92.50;;;;;;5036271;28;20207;-70
2021/04/16 00:39:34;;;;;;;1.40;1.25;;;10.00;92.50;;;;;;5037743;28;20540;-70
2021/04/16 00:42:00;;;;;;;2.22;1.60;;;10.00;92.60;;;;;;5037607;28;20203;-70
2021/04/16 00:44:26;;;;;;;1.90;1.48;;;10.00;92.70;;;;;;5036156;28;20199;-70
2021/04/16 00:46:57;;;;;;;1.80;1.65;;;10.00;92.70;;;;;;5034939;28;20195;-70
2021/04/16 00:49:27;;;;;;;1.90;1.60;;;10.00;92.80;;;;;;5034201;28;20196;-71
2021/04/16 00:51:57;;;;;;;1.90;1.40;;;10.00;92.80;;;;;;5036269;28;20195;-70
2021/04/16 00:54:26;;;;;;;1.30;1.20;;;10.00;92.90;;;;;;5035208;28;20627;-70
2021/04/16 00:56:54;;;;;;;1.55;1.30;;;10.00;93.00;;;;;;5033868;28;20237;-69
2021/04/16 01:02:42;;;;;;;1.45;1.30;;;9.90;93.80;;;;;;5032762;28;20202;-69
2021/04/16 01:05:10;;;;;;;1.90;1.30;;;10.00;93.10;;;;;;5038223;28;20204;-69
2021/04/16 01:07:37;;;;;;;2.78;1.70;;;9.90;93.80;;;;;;5036132;28;20211;-69
2021/04/16 01:10:05;;;;;;;2.05;1.60;;;9.90;93.90;;;;;;5037325;28;20214;-69
2021/04/16 01:12:33;;;;;;;2.97;1.50;;;9.90;94.00;;;;;;5035415;28;20206;-69
2021/04/16 01:15:03;;;;;;;2.95;1.70;;;9.90;94.00;;;;;;5036189;28;20211;-70
2021/04/16 01:17:30;;;;;;;2.00;1.50;;;9.90;94.00;;;;;;5035693;28;20227;-69
2021/04/16 01:20:05;;;;;;;1.63;1.52;;;9.90;94.20;;;;;;5035315;28;20527;-70
2021/04/16 01:22:36;;;;;;;3.40;1.80;;;9.80;94.20;;;;;;5035629;28;20187;-70
2021/04/16 01:25:08;;;;;;;1.90;1.50;;;9.80;94.20;;;;;;5035737;28;20203;-71
2021/04/16 01:27:35;;;;;;;2.03;1.92;;;9.80;94.30;;;;;;5033654;28;20686;-69
2021/04/16 01:30:06;;;;;;;2.55;1.65;;;9.80;94.40;;;;;;5036397;28;20261;-69
2021/04/16 01:32:32;;;;;;;2.15;1.60;;;9.80;94.80;;;;;;5034171;28;20223;-69
2021/04/16 01:34:59;;;;;;;2.10;1.90;;;9.80;94.50;;;;;;5041364;28;20503;-69
2021/04/16 01:37:27;;;;;;;2.00;1.65;;;9.80;94.70;;;;;;5033089;28;20210;-70
2021/04/16 01:39:54;;;;;;;2.22;1.60;;;9.70;94.70;;;;;;5040106;28;20202;-70
2021/04/16 01:42:21;;;;;;;1.92;1.50;;;9.70;94.80;;;;;;5037239;28;20200;-70
2021/04/16 01:44:48;;;;;;;2.10;1.90;;;9.70;94.80;;;;;;5042312;28;20203;-70
2021/04/16 01:47:15;;;;;;;2.10;1.63;;;9.80;94.90;;;;;;5040243;28;20600;-70
2021/04/16 01:49:45;;;;;;;1.58;1.30;;;9.70;94.90;;;;;;5035018;28;20210;-70
2021/04/16 01:52:13;;;;;;;3.05;2.20;;;9.70;95.00;;;;;;5034540;28;20273;-71
2021/04/16 01:54:42;;;;;;;2.30;2.00;;;9.70;95.00;;;;;;5035011;28;20207;-71
2021/04/16 01:57:12;;;;;;;2.30;1.90;;;9.70;95.10;;;;;;5034049;28;20199;-69
2021/04/16 01:59:42;;;;;;;1.92;1.73;;;9.70;95.10;;;;;;5029321;28;20210;-70
2021/04/16 02:02:11;;;;;;;3.10;1.73;;;9.70;95.50;;;;;;5032700;28;20199;-70
2021/04/16 02:04:38;;;;;;;2.95;1.75;;;9.70;95.10;;;;;;5034600;28;20207;-70
2021/04/16 02:07:04;;;;;;;3.00;2.08;;;9.70;95.20;;;;;;5033358;28;20521;-70
2021/04/16 02:09:33;;;;;;;2.38;1.85;;;9.70;95.30;;;;;;5034428;28;20199;-70
2021/04/16 02:12:00;;;;;;;2.15;1.75;;;9.70;95.30;;;;;;5032852;28;20191;-70
2021/04/16 02:14:28;;;;;;;1.90;1.70;;;9.70;95.40;;;;;;5033694;28;20196;-70
2021/04/16 02:16:58;;;;;;;2.30;2.03;;;9.60;95.40;;;;;;5034215;28;20211;-70
2021/04/16 02:19:25;;;;;;;2.53;1.70;;;9.60;95.50;;;;;;5033423;28;20207;-70
2021/04/16 02:21:51;;;;;;;2.60;1.40;;;9.60;95.50;;;;;;5040012;28;20551;-70
2021/04/16 02:24:18;;;;;;;2.10;1.60;;;9.60;95.60;;;;;;5035464;28;20192;-70
2021/04/16 02:26:45;;;;;;;4.72;1.85;;;9.60;95.70;;;;;;5031165;28;20312;-69
2021/04/16 02:29:13;;;;;;;2.40;1.85;;;9.60;95.70;;;;;;5033452;28;20211;-69
2021/04/16 02:31:42;;;;;;;2.50;2.22;;;9.60;95.80;;;;;;5033548;28;20223;-70
2021/04/16 02:34:10;;;;;;;1.95;1.40;;;9.60;95.80;;;;;;5034793;28;20206;-70
2021/04/16 02:36:36;;;;;;;1.55;1.27;;;9.60;95.90;;;;;;5033896;28;20202;-69
2021/04/16 02:39:06;;;;;;;2.72;2.03;;;9.60;95.90;;;;;;5033296;28;20200;-70
2021/04/16 02:41:32;;;;;;;1.90;1.70;;;9.60;95.90;;;;;;5032102;28;20222;-68
2021/04/16 02:43:59;;;;;;;3.13;2.17;;;9.50;95.90;;;;;;5031476;28;20566;-69
2021/04/16 02:46:25;;;;;;;4.15;1.98;;;9.60;96.10;;;;;;5034434;28;20602;-69
2021/04/16 02:48:51;;;;;;;2.53;2.08;;;9.60;96.10;;;;;;5039303;28;20199;-70
2021/04/16 02:51:18;;;;;;;3.60;2.17;;;9.60;96.10;;;;;;5032914;28;20241;-69
2021/04/16 02:53:45;;;;;;;3.20;2.00;;;9.60;96.10;;;;;;5032200;28;20199;-69
2021/04/16 02:56:11;;;;;;;3.03;2.33;;;9.60;96.20;;;;;;5033574;28;20194;-69
2021/04/16 02:58:37;;;;;;;2.10;1.65;;;9.60;96.30;;;;;;5024996;28;20222;-70
2021/04/16 03:01:04;;;;;;;3.13;2.13;;;9.60;96.30;;;;;;5030309;28;20210;-69
2021/04/16 03:03:30;;;;;;;2.08;1.85;;;9.50;96.30;;;;;;5035501;28;20195;-69
2021/04/16 03:05:57;;;;;;;2.60;1.92;;;9.50;96.30;;;;;;5035533;28;20210;-70
2021/04/16 03:08:24;;;;;;;4.15;2.28;;;9.50;96.40;;;;;;5032392;28;20195;-69
2021/04/16 03:10:51;;;;;;;4.75;1.80;;;9.50;96.50;;;;;;5032552;28;20215;-69
2021/04/16 03:13:18;;;;;;;2.75;1.77;;;9.50;96.50;;;;;;5034836;28;20191;-69
2021/04/16 03:15:45;;;;;;;4.47;4.07;;;9.50;96.50;;;;;;5033229;28;20203;-69
2021/04/16 03:18:11;;;;;;;2.40;2.03;;;9.50;96.50;;;;;;5031687;28;20667;-69
2021/04/16 03:20:37;;;;;;;4.40;2.63;;;9.50;96.60;;;;;;5043208;28;20199;-69
2021/04/16 03:23:03;;;;;;;2.50;2.30;;;9.50;96.60;;;;;;5037548;28;20192;-69
2021/04/16 03:25:30;;;;;;;2.88;2.22;;;9.40;96.60;;;;;;5036681;28;20350;-69
2021/04/16 03:27:57;;;;;;;3.03;2.72;;;9.50;96.70;;;;;;5040014;28;20226;-69
2021/04/16 03:30:26;;;;;;;6.50;2.15;;;9.40;96.70;;;;;;5038141;28;20234;-69
2021/04/16 03:32:52;;;;;;;3.65;2.35;;;9.40;96.70;;;;;;5036501;28;20199;-69
2021/04/16 03:35:19;;;;;;;2.22;2.03;;;9.40;96.80;;;;;;5035953;28;20254;-70
2021/04/16 03:37:46;;;;;;;2.30;2.10;;;9.40;96.90;;;;;;5035942;28;20207;-70
2021/04/16 03:40:15;;;;;;;3.65;2.30;;;9.40;96.90;;;;;;5035508;28;20521;-70
2021/04/16 03:42:42;;;;;;;2.20;1.95;;;9.40;96.90;;;;;;5040381;28;20200;-69
2021/04/16 03:45:10;;;;;;;2.03;1.80;;;9.40;97.00;;;;;;5042079;28;20286;-69
2021/04/16 03:47:37;;;;;;;2.25;2.05;;;9.30;97.00;;;;;;5036179;28;20191;-69
2021/04/16 03:50:04;;;;;;;2.95;2.28;;;9.30;97.30;;;;;;5040274;28;20269;-69
2021/04/16 03:52:31;;;;;;;2.25;2.05;;;9.30;97.20;;;;;;5035603;28;20200;-69
2021/04/16 03:54:57;;;;;;;4.82;2.58;;;9.30;97.30;;;;;;5033981;28;20199;-69
2021/04/16 03:57:24;;;;;;;2.70;2.20;;;9.30;97.20;;;;;;5037945;28;20209;-69
2021/04/16 03:59:53;;;;;;;4.43;2.42;;;9.30;97.40;;;;;;5042414;28;20198;-70
2021/04/16 04:02:20;;;;;;;6.00;2.90;;;9.30;97.30;;;;;;5035262;28;20223;-69
2021/04/16 04:04:47;;;;;;;3.50;2.10;;;9.30;97.40;;;;;;5035842;28;20207;-69
2021/04/16 04:07:13;;;;;;;3.55;2.45;;;9.30;97.40;;;;;;5036282;28;20195;-69
2021/04/16 04:09:39;;;;;;;3.35;2.35;;;9.30;97.50;;;;;;5036605;28;20199;-69
2021/04/16 04:12:07;;;;;;;2.85;2.42;;;9.30;97.50;;;;;;5037581;28;20207;-69
2021/04/16 04:14:33;;;;;;;3.10;2.05;;;9.20;97.50;;;;;;5035384;28;20578;-69
2021/04/16 04:17:03;;;;;;;2.40;2.03;;;9.20;97.70;;;;;;5037782;28;20200;-69
2021/04/16 04:19:31;;;;;;;2.10;1.85;;;9.20;97.90;;;;;;5035383;28;20191;-69
2021/04/16 04:21:59;;;;;;;7.40;2.20;;;9.20;97.90;;;;;;5036609;28;21611;-69
2021/04/16 04:24:26;;;;;;;3.85;2.03;;;9.20;97.90;;;;;;5039402;28;20544;-69
2021/04/16 04:26:53;;;;;;;3.60;2.50;;;9.20;98.00;;;;;;5036343;28;20230;-69
2021/04/16 04:29:23;;;;;;;3.72;2.80;;;9.10;98.00;;;;;;5035445;28;20521;-70
2021/04/16 04:31:50;;;;;;;2.55;2.17;;;9.10;98.00;;;;;;5038662;28;20203;-69
2021/04/16 04:34:19;;;;;;;2.50;2.10;;;9.10;98.20;;;;;;5037180;28;20205;-69
2021/04/16 04:36:46;;;;;;;6.43;2.80;;;9.00;98.30;;;;;;5035204;28;20668;-69
2021/04/16 04:39:13;;;;;;;3.85;2.00;;;9.00;98.30;;;;;;5037216;28;20200;-69
2021/04/16 04:41:39;;;;;;;2.17;1.80;;;9.10;98.40;;;;;;5033817;28;20221;-69
2021/04/16 04:44:06;;;;;;;2.63;1.98;;;9.00;98.40;;;;;;5042284;28;20601;-69
2021/04/16 04:46:33;;;;;;;2.33;1.73;;;9.00;98.50;;;;;;5037019;28;20196;-69
2021/04/16 04:48:59;;;;;;;2.30;2.10;;;9.00;98.60;;;;;;5033402;28;20200;-69
2021/04/16 04:51:26;;;;;;;3.00;2.20;;;9.00;98.80;;;;;;5036438;28;20555;-69
2021/04/16 04:53:52;;;;;;;4.10;2.50;;;9.00;98.70;;;;;;5033853;28;20192;-69
2021/04/16 04:56:18;;;;;;;3.67;2.35;;;9.00;98.80;;;;;;5037573;28;20203;-71
2021/04/16 04:58:44;;;;;;;3.30;2.70;;;8.90;98.80;;;;;;5036420;28;20560;-69
2021/04/16 05:01:11;;;;;;;2.05;1.80;;;8.90;98.90;;;;;;5037707;28;20229;-69
2021/04/16 05:03:37;;;;;;;2.42;1.92;;;9.00;98.90;;;;;;5037359;28;20203;-69
2021/04/16 05:06:04;;;;;;;3.75;2.65;;;8.90;98.90;;;;;;5037247;28;20239;-71
2021/04/16 05:08:31;;;;;;;4.13;2.55;;;8.90;99.10;;;;;;5042624;28;20195;-69
2021/04/16 05:10:57;;;;;;;2.90;2.60;;;9.00;99.20;;;;;;5035249;28;20770;-69
2021/04/16 05:13:23;;;;;;;2.75;2.00;;;8.90;99.00;;;;;;5035076;28;20570;-70
2021/04/16 05:15:50;;;;;;;3.50;2.70;;;8.90;99.00;;;;;;5035420;28;20257;-70
2021/04/16 05:18:16;;;;;;;2.65;2.45;;;9.00;99.00;;;;;;5035318;28;20204;-70
2021/04/16 05:20:42;;;;;;;2.83;2.53;;;9.00;99.00;;;;;;5035561;28;20211;-70
2021/04/16 05:23:08;;;;;;;2.55;2.30;;;9.00;98.90;;;;;;5035763;28;20222;-70
2021/04/16 05:25:35;;;;;;;3.67;3.10;;;9.00;98.90;;;;;;5034623;28;20203;-69
2021/04/16 05:28:02;;;;;;;3.80;2.28;;;9.00;98.80;;;;;;5033100;28;20322;-69
2021/04/16 05:30:28;;;;;;;3.85;2.63;;;8.90;99.00;;;;;;5036068;28;20215;-69
2021/04/16 05:32:55;;;;;;;3.65;2.30;;;9.00;99.00;;;;;;5033226;28;20199;-69
2021/04/16 05:35:21;;;;;;;3.00;2.38;;;9.00;98.90;;;;;;5035969;28;20203;-71
2021/04/16 05:37:48;;;;;;;2.17;1.83;;;9.00;98.80;;;;;;5034755;28;20258;-69
2021/04/16 05:40:15;;;;;;;3.60;2.33;;;9.00;98.80;;;;;;5033905;28;20693;-69
2021/04/16 05:42:43;;;;;;;2.40;2.20;;;9.00;99.00;;;;;;5036429;28;20195;-69
2021/04/16 05:45:10;;;;;;;2.75;2.55;;;9.00;99.00;;;;;;5033864;28;20195;-69
2021/04/16 05:47:36;;;;;;;2.75;2.42;;;9.10;98.90;;;;;;5033936;28;20199;-69
2021/04/16 05:50:03;;;;;;;4.93;3.50;;;9.10;98.70;;;;;;5041412;28;20195;-69
2021/04/16 05:52:30;;;;;;;3.45;2.33;;;9.20;98.50;;;;;;5031606;28;20652;-69
2021/04/16 05:54:56;;;;;;;4.38;2.00;;;9.40;98.20;;;;;;5033107;28;20208;-69
2021/04/16 05:57:22;;;;;;;2.90;2.60;;;9.50;97.50;;;;;;5035254;28;20318;-70
2021/04/16 05:59:49;;;;;;;3.58;2.33;;;9.80;96.90;;;;;;5033072;28;20203;-70
2021/04/16 06:02:27;;;;;;;5.00;3.20;;;10.00;95.60;;;;;;5034652;28;21050;-69
2021/04/16 06:04:54;;;;;;;2.95;1.83;;;10.10;94.80;;;;;;5040257;28;20195;-69
2021/04/16 06:07:21;;;;;;;3.40;2.33;;;10.30;94.40;;;;;;5034464;28;20266;-70
2021/04/16 06:09:47;;;;;;;2.17;1.85;;;10.50;93.90;;;;;;5035070;28;20352;-69
2021/04/16 06:12:14;;;;;;;2.65;2.05;;;10.60;93.50;;;;;;5033476;28;20219;-70
2021/04/16 06:14:41;;;;;;;4.85;2.65;;;10.70;93.00;;;;;;5034430;28;20218;-70
2021/04/16 06:17:09;;;;;;;2.00;1.80;;;10.90;92.40;;;;;;5027942;28;20282;-70
2021/04/16 06:19:35;;;;;;;2.65;1.98;;;11.00;92.00;;;;;;5033703;28;20199;-70
2021/04/16 06:22:02;;;;;;;2.60;2.17;;;11.20;91.70;;;;;;5033781;28;20207;-70
2021/04/16 06:24:28;;;;;;;3.92;2.53;;;11.30;91.10;;;;;;5035121;28;20191;-71
2021/04/16 06:26:54;;;;;;;3.95;1.80;;;11.40;90.80;;;;;;5039732;28;20941;-70
2021/04/16 06:29:20;;;;;;;3.40;2.20;;;11.50;90.40;;;;;;5033452;28;20200;-70
2021/04/16 06:31:47;;;;;;;3.50;2.35;;;11.60;90.10;;;;;;5034289;28;20215;-69
2021/04/16 06:34:14;;;;;;;3.67;2.58;;;11.70;89.20;;;;;;5032860;28;20207;-70
2021/04/16 06:36:40;;;;;;;2.13;1.92;;;11.70;89.10;;;;;;5032936;28;20767;-70
2021/04/16 06:39:07;;;;;;;3.15;1.83;;;11.50;89.70;;;;;;5031279;28;20210;-70
2021/04/16 06:41:34;;;;;;;2.40;2.20;;;11.40;90.20;;;;;;5032693;28;20191;-70
2021/04/16 06:44:06;;;;;;;2.22;1.90;;;11.20;90.80;;;;;;5030771;28;20715;-70
2021/04/16 06:46:35;;;;;;;3.38;2.10;;;11.20;91.10;;;;;;5032598;28;20198;-70
2021/04/16 06:49:04;;;;;;;4.30;1.98;;;11.30;90.90;;;;;;5035161;28;20190;-70
2021/04/16 06:51:44;;;;;;;3.30;1.70;;;11.50;90.90;;;;;;5033757;28;20218;-70
2021/04/16 06:54:18;;;;;;;2.00;1.80;;;11.70;90.20;;;;;;5030707;28;20537;-70
2021/04/16 06:56:47;;;;;;;2.97;1.90;;;11.80;90.00;;;;;;5034394;28;20196;-70
2021/04/16 06:59:22;;;;;;;2.50;2.30;;;11.90;89.00;;;;;;5031883;28;20298;-70
2021/04/16 07:01:52;;;;;;;3.13;2.13;;;12.00;87.80;;;;;;5035025;28;20340;-70
2021/04/16 07:04:32;;;;;;;3.30;2.10;;;12.20;87.00;;;;;;5029121;28;20195;-70
2021/04/16 07:07:02;;;;;;;5.45;2.13;;;12.30;86.00;;;;;;5033947;28;20194;-70
2021/04/16 07:09:32;;;;;;;4.30;2.67;;;12.40;85.40;;;;;;5034650;28;20222;-71
2021/04/16 07:12:04;;;;;;;4.30;2.15;;;12.40;85.60;;;;;;5032276;28;20218;-71
2021/04/16 07:14:38;;;;;;;2.05;1.85;;;12.30;85.80;;;;;;5033979;28;20207;-71
2021/04/16 07:17:04;;;;;;;4.65;2.15;;;12.30;85.80;;;;;;5035724;28;20195;-70
2021/04/16 07:19:31;;;;;;;2.50;2.30;;;12.30;85.90;;;;;;5033039;28;20199;-71
2021/04/16 07:22:01;;;;;;;5.60;4.30;;;12.10;85.90;;;;;;5032239;28;20205;-70
2021/04/16 07:24:27;;;;;;;5.88;2.35;;;12.00;87.00;;;;;;5031368;28;20203;-70
2021/04/16 07:26:57;;;;;;;2.85;2.03;;;11.90;87.60;;;;;;5032429;28;21779;-71
2021/04/16 07:29:41;;;;;;;2.10;1.88;;;11.80;87.60;;;;;;5032177;28;20538;-70
2021/04/16 07:32:13;;;;;;;3.70;2.25;;;11.80;88.10;;;;;;5031629;28;20558;-70
2021/04/16 07:34:46;;;;;;;2.67;2.30;;;11.80;88.10;;;;;;5033558;28;20196;-70
2021/04/16 07:37:18;;;;;;;3.67;2.13;;;11.70;88.70;;;;;;5034562;28;20188;-70
2021/04/16 07:39:58;;;;;;;2.83;2.13;;;11.60;89.40;;;;;;5033678;28;20199;-70
2021/04/16 07:42:37;;;;;;;1.85;1.75;;;11.60;90.10;;;;;;5032338;28;20183;-70
2021/04/16 07:45:09;;;;;;;1.52;1.40;;;11.70;90.00;;;;;;5037404;28;20698;-71
2021/04/16 07:47:37;;;;;;;2.42;2.10;;;11.80;89.40;;;;;;5034103;28;20195;-70
2021/04/16 07:50:07;;;;;;;3.20;2.42;;;11.90;89.20;;;;;;5031810;28;20203;-70
2021/04/16 07:52:37;;;;;;;2.10;1.85;;;11.90;89.20;;;;;;5033223;28;20188;-70
2021/04/16 07:55:19;;;;;;;2.97;2.10;;;11.90;88.80;;;;;;5032064;28;20245;-71
2021/04/16 07:58:00;;;;;;;2.38;2.00;;;11.90;87.70;;;;;;5030657;28;20202;-71
2021/04/16 08:00:32;;;;;;;2.65;2.28;;;12.00;86.60;;;;;;5031507;28;20251;-71
2021/04/16 08:03:14;;;;;;;3.15;1.70;;;12.00;86.00;;;;;;5032454;28;20201;-71
2021/04/16 08:05:45;;;;;;;2.25;1.67;;;11.90;86.90;;;;;;5037994;28;20191;-71
2021/04/16 08:08:26;;;;;;;4.05;2.20;;;11.90;87.90;;;;;;5034958;28;20204;-71
2021/04/16 08:10:58;;;;;;;2.28;1.73;;;11.80;87.20;;;;;;5035268;28;20238;-71
2021/04/16 08:13:26;;;;;;;3.38;2.15;;;11.60;86.00;;;;;;5037154;28;20207;-71
2021/04/16 08:15:54;;;;;;;3.10;1.88;;;11.50;86.40;;;;;;5036409;28;20202;-71
2021/04/16 08:18:26;;;;;;;3.63;2.10;;;11.50;86.90;;;;;;5037868;28;20194;-69
2021/04/16 08:21:03;;;;;;;2.47;1.90;;;11.50;88.70;;;;;;5037985;28;20207;-71
2021/04/16 08:23:37;;;;;;;2.65;1.95;;;11.60;87.80;;;;;;5035595;28;20199;-72
2021/04/16 08:26:09;;;;;;;2.10;1.80;;;11.70;86.30;;;;;;5034871;28;20253;-75
2021/04/16 08:28:46;;;;;;;2.17;1.90;;;11.80;88.40;;;;;;5036415;28;20670;-70
2021/04/16 08:31:16;;;;;;;2.13;1.70;;;11.70;84.80;;;;;;5037854;28;20266;-72
2021/04/16 08:33:46;;;;;;;2.88;2.10;;;11.80;85.80;;;;;;5037345;28;20195;-72
2021/04/16 08:36:20;;;;;;;2.80;2.10;;;11.80;82.80;;;;;;5034873;28;20619;-71
2021/04/16 08:38:56;;;;;;;1.65;1.55;;;11.80;84.70;;;;;;5050929;28;20657;-71
2021/04/16 08:41:23;;;;;;;2.92;2.10;;;11.80;82.60;;;;;;5053351;28;20226;-71
2021/04/16 08:43:52;;;;;;;2.03;1.88;;;11.90;84.40;;;;;;5044781;28;20663;-71
2021/04/16 08:46:28;;;;;;;1.70;1.50;;;11.90;82.80;;;;;;5033204;28;20525;-71
2021/04/16 08:48:58;;;;;;;2.50;2.30;;;11.90;80.50;;;;;;5033751;28;20603;-71
2021/04/16 08:51:29;;;;;;;2.20;1.80;;;11.90;81.70;;;;;;5039680;28;20216;-71
2021/04/16 08:54:06;;;;;;;3.58;2.58;;;11.90;79.90;;;;;;5052849;28;20191;-69
2021/04/16 08:56:39;;;;;;;2.55;2.17;;;11.50;71.70;;;;;;5053459;28;20639;-71
2021/04/16 08:59:14;;;;;;;3.35;2.83;;;11.50;75.80;;;;;;5053632;28;20241;-70
2021/04/16 09:01:49;;;;;;;2.85;1.85;;;11.60;80.00;;;;;;5053285;28;20202;-70
2021/04/16 09:04:50;;;;;;;2.22;1.50;;;11.60;79.10;;;;;;5048514;28;20845;-71
2021/04/16 09:07:36;;;;;;;1.90;1.35;;;11.70;79.50;;;;;;5035002;28;20628;-70
2021/04/16 09:10:08;;;;;;;2.35;1.38;;;11.70;80.30;;;;;;5033425;28;20184;-70
2021/04/16 09:12:49;;;;;;;2.97;2.33;;;11.80;81.20;;;;;;5046175;28;20214;-70
2021/04/16 09:15:49;;;;;;;3.45;1.77;;;11.70;79.00;;;;;;5053135;28;20183;-70
2021/04/16 09:18:29;;;;;;;1.83;1.38;;;11.70;79.30;;;;;;5051537;28;20746;-70
2021/04/16 09:21:22;;;;;;;1.48;1.35;;;11.70;80.00;;;;;;5051419;28;20195;-70
2021/04/16 09:24:08;;;;;;;2.92;1.67;;;11.70;80.80;;;;;;5050358;28;20202;-71
2021/04/16 09:27:03;;;;;;;3.50;2.03;;;11.70;80.80;;;;;;5044506;28;20718;-70
2021/04/16 09:29:40;;;;;;;2.88;1.52;;;11.70;79.00;;;;;;5052987;28;20187;-70
2021/04/16 09:32:42;;;;;;;1.95;1.35;;;11.70;77.50;;;;;;5045928;28;20200;-70
2021/04/16 09:35:11;;;;;;;2.72;1.90;;;11.70;78.40;;;;;;5045020;28;20198;-69
2021/04/16 09:37:40;;;;;;;4.05;2.03;;;11.70;80.00;;;;;;5041710;28;20235;-69
2021/04/16 09:40:28;;;;;;;3.25;1.50;;;11.70;79.50;;;;;;5032732;28;20250;-69
2021/04/16 09:42:57;;;;;;;4.05;1.92;;;11.70;78.90;;;;;;5039686;28;20210;-70
2021/04/16 09:45:43;;;;;;;2.10;1.48;;;11.80;79.70;;;;;;5045501;28;20196;-69
2021/04/16 09:48:24;;;;;;;4.32;2.92;;;11.80;80.90;;;;;;5042522;28;20274;-69
2021/04/16 09:51:11;;;;;;;2.20;1.65;;;11.80;80.30;;;;;;5042282;28;20545;-69
2021/04/16 09:53:38;;;;;;;3.47;1.50;;;11.90;78.00;;;;;;5032090;28;20199;-69
2021/04/16 09:56:17;;;;;;;2.85;1.40;;;11.90;78.70;;;;;;5050967;28;20203;-69
2021/04/16 09:59:25;;;;;;;2.35;1.85;;;11.90;77.30;;;;;;5052414;28;20221;-69
2021/04/16 10:02:29;;;;;;;2.35;1.58;;;11.80;74.80;;;;;;5034323;28;20195;-69
2021/04/16 10:05:01;;;;;;;3.20;1.60;;;11.90;76.80;;;;;;5032018;28;20210;-69
2021/04/16 10:07:39;;;;;;;2.97;1.95;;;11.90;76.10;;;;;;5048767;28;20216;-72
2021/04/16 10:10:13;;;;;;;2.40;2.00;;;11.70;68.30;;;;;;5048183;28;20214;-70
2021/04/16 10:12:40;;;;;;;5.35;2.30;;;11.60;69.50;;;;;;5033289;28;20661;-69
2021/04/16 10:15:18;;;;;;;1.90;1.63;;;11.60;73.20;;;;;;5040509;28;20210;-69
2021/04/16 10:17:57;;;;;;;2.67;1.90;;;11.80;75.00;;;;;;5051689;28;20629;-70
2021/04/16 10:20:25;;;;;;;3.95;2.20;;;11.90;74.40;;;;;;5049008;28;20205;-70
2021/04/16 10:23:01;;;;;;;2.60;2.10;;;12.00;74.40;;;;;;5050709;28;20539;-70
2021/04/16 12:38:46;;;;;;;1.70;1.42;;;12.80;74.00;;;;;;5051716;28;20201;-70
2021/04/16 12:41:15;;;;;;;2.38;1.85;;;12.80;72.60;;;;;;5046184;28;20201;-69
2021/04/16 12:43:44;;;;;;;2.72;1.55;;;12.80;73.40;;;;;;5053641;28;20733;-69
2021/04/16 12:46:13;;;;;;;4.80;2.10;;;12.80;70.60;;;;;;5052529;28;20789;-70
2021/04/16 12:48:39;;;;;;;2.10;1.90;;;12.70;68.60;;;;;;5045002;28;20627;-70
2021/04/16 12:51:06;;;;;;;1.52;1.42;;;12.70;69.20;;;;;;5040324;28;20290;-70
2021/04/16 12:53:32;;;;;;;2.22;1.50;;;12.70;67.50;;;;;;5033438;28;20195;-69
2021/04/16 12:55:58;;;;;;;3.13;1.67;;;12.70;69.60;;;;;;5033181;28;20659;-70
2021/04/16 12:58:29;;;;;;;2.38;1.60;;;12.80;69.50;;;;;;5041205;28;20191;-69
2021/04/16 13:00:57;;;;;;;2.20;1.67;;;12.80;69.00;;;;;;5052405;28;20187;-70
2021/04/16 13:03:33;;;;;;;2.08;1.88;;;12.80;68.90;;;;;;5041942;28;20199;-70
2021/04/16 13:06:00;;;;;;;1.55;1.45;;;12.80;68.50;;;;;;5051748;28;20598;-70
2021/04/16 13:08:27;;;;;;;2.72;1.85;;;12.80;69.90;;;;;;5052426;28;20191;-70
2021/04/16 13:10:53;;;;;;;1.58;1.48;;;12.80;70.30;;;;;;5051281;28;20222;-70
2021/04/16 13:13:19;;;;;;;3.35;1.70;;;12.90;70.90;;;;;;5053260;28;20206;-70
2021/04/16 13:15:47;;;;;;;2.80;1.83;;;12.90;70.90;;;;;;5052370;28;20639;-70
2021/04/16 13:18:17;;;;;;;1.70;1.50;;;12.90;69.00;;;;;;5032517;28;20187;-70
2021/04/16 13:20:46;;;;;;;3.00;1.75;;;12.90;69.00;;;;;;5034103;28;20202;-69
2021/04/16 13:23:13;;;;;;;4.00;1.85;;;12.90;69.90;;;;;;5045056;28;20214;-68
2021/04/16 13:25:40;;;;;;;2.50;1.40;;;12.90;68.30;;;;;;5052116;28;20202;-69
2021/04/16 13:28:06;;;;;;;3.08;2.33;;;12.90;67.70;;;;;;5050215;28;20276;-69
2021/04/16 13:30:33;;;;;;;1.70;1.52;;;12.90;66.40;;;;;;5034610;28;20546;-69
2021/04/16 13:33:02;;;;;;;2.08;1.40;;;12.80;66.40;;;;;;5052377;28;20199;-69
2021/04/16 13:35:32;;;;;;;3.15;1.40;;;12.90;68.80;;;;;;5042234;28;20199;-68
2021/04/16 13:38:01;;;;;;;1.83;1.70;;;12.90;71.40;;;;;;5051765;28;20199;-68
2021/04/16 13:40:27;;;;;;;2.47;2.28;;;13.00;70.10;;;;;;5042796;28;20269;-68
2021/04/16 13:42:54;;;;;;;2.15;1.52;;;13.00;67.60;;;;;;5032953;28;20210;-69
2021/04/16 13:45:21;;;;;;;2.42;1.50;;;12.90;66.90;;;;;;5045134;28;20264;-69
2021/04/16 13:47:48;;;;;;;4.05;1.90;;;13.00;68.20;;;;;;5048628;28;20209;-69
2021/04/16 13:50:16;;;;;;;3.70;1.52;;;13.00;68.50;;;;;;5051465;28;20202;-69
2021/04/16 13:52:43;;;;;;;1.20;1.10;;;13.00;67.30;;;;;;5049349;28;20217;-69
2021/04/16 13:55:12;;;;;;;2.63;1.65;;;13.00;66.80;;;;;;5052162;28;20203;-69
2021/04/16 13:57:39;;;;;;;1.45;1.35;;;13.00;66.40;;;;;;5050886;28;20252;-69
2021/04/16 14:00:08;;;;;;;1.83;1.23;;;13.00;67.20;;;;;;5038522;28;20212;-69
2021/04/16 14:02:37;;;;;;;1.60;1.38;;;13.00;68.10;;;;;;5050663;28;20191;-69
2021/04/16 14:05:05;;;;;;;2.25;1.30;;;13.00;68.50;;;;;;5038304;28;20191;-69
2021/04/16 14:07:31;;;;;;;3.40;1.55;;;13.00;69.00;;;;;;5046812;28;20563;-69
2021/04/16 14:09:57;;;;;;;2.20;2.00;;;13.10;69.70;;;;;;5050618;28;20210;-69
2021/04/16 14:12:24;;;;;;;1.92;1.73;;;13.10;67.30;;;;;;5035437;28;20219;-69
2021/04/16 14:14:50;;;;;;;2.40;1.67;;;13.00;67.50;;;;;;5040963;28;20214;-69
2021/04/16 14:17:21;;;;;;;2.10;1.90;;;13.00;66.20;;;;;;5045496;28;20225;-69
2021/04/16 14:19:49;;;;;;;1.85;1.40;;;13.00;66.60;;;;;;5033558;28;20639;-69
2021/04/16 14:22:22;;;;;;;4.00;1.48;;;13.00;66.10;;;;;;5031776;28;20187;-69
2021/04/16 14:24:48;;;;;;;1.40;1.30;;;13.00;66.70;;;;;;5041747;28;20203;-68
2021/04/16 14:27:15;;;;;;;1.63;1.33;;;13.00;66.90;;;;;;5049889;28;20289;-69
2021/04/16 14:29:41;;;;;;;1.98;1.77;;;13.00;67.90;;;;;;5050555;28;20212;-69
2021/04/16 14:32:10;;;;;;;2.05;1.55;;;13.00;68.30;;;;;;5049283;28;20581;-69
2021/04/16 14:34:38;;;;;;;1.92;1.55;;;13.10;67.40;;;;;;5033551;28;20218;-69
2021/04/16 14:37:04;;;;;;;1.83;1.63;;;13.10;69.00;;;;;;5037086;28;20199;-69
2021/04/16 14:39:31;;;;;;;1.90;1.70;;;13.10;68.60;;;;;;5051103;28;20639;-69
2021/04/16 14:41:58;;;;;;;1.70;1.40;;;13.10;68.30;;;;;;5044650;28;20241;-69
2021/04/16 14:44:25;;;;;;;1.90;1.70;;;13.10;67.60;;;;;;5050153;28;20210;-69
2021/04/16 14:46:53;;;;;;;2.28;1.80;;;13.10;67.70;;;;;;5050950;28;20199;-68
2021/04/16 14:49:20;;;;;;;1.70;1.40;;;13.10;67.80;;;;;;5040864;28;20191;-69
2021/04/16 14:51:48;;;;;;;2.03;1.80;;;13.20;67.40;;;;;;5032744;28;20249;-69
2021/04/16 14:54:22;;;;;;;2.30;1.65;;;13.20;67.50;;;;;;5050009;28;20203;-69
2021/04/16 14:56:48;;;;;;;2.20;2.00;;;13.20;68.10;;;;;;5046406;28;20266;-69
2021/04/16 14:59:21;;;;;;;2.25;1.70;;;13.20;68.40;;;;;;5044865;28;20206;-68
2021/04/16 15:01:49;;;;;;;2.00;1.60;;;13.20;68.70;;;;;;5039764;28;20253;-69
2021/04/16 15:04:15;;;;;;;5.63;2.80;;;13.30;68.50;;;;;;5042105;28;20199;-69
2021/04/16 15:06:41;;;;;;;1.98;1.60;;;13.20;67.90;;;;;;5040806;28;20200;-69
2021/04/16 15:09:12;;;;;;;1.63;1.52;;;13.20;66.80;;;;;;5045931;28;20622;-69
2021/04/16 15:11:41;;;;;;;3.13;1.80;;;13.20;67.30;;;;;;5050346;28;20631;-69
2021/04/16 15:14:13;;;;;;;3.38;1.95;;;13.20;67.10;;;;;;5036711;28;20693;-69
2021/04/16 15:16:42;;;;;;;2.00;1.40;;;13.20;68.10;;;;;;5037588;28;20191;-69
2021/04/16 15:19:09;;;;;;;2.92;1.92;;;13.20;67.60;;;;;;5046117;28;20202;-69